createdAt,value
2023-02-06T00:00:51.130Z,23.60
2023-02-06T00:03:17.903Z,22.23
2023-02-06T00:05:44.410Z,22.08
2023-02-06T00:08:10.828Z,21.95
2023-02-06T00:10:37.288Z,22.55
2023-02-06T00:13:03.731Z,20.30
2023-02-06T00:15:30.346Z,23.20
2023-02-06T00:17:56.762Z,21.10
2023-02-06T00:20:23.613Z,21.67
2023-02-06T00:22:49.994Z,20.42
2023-02-06T00:25:16.482Z,22.35
2023-02-06T00:27:43.064Z,21.77
2023-02-06T00:30:09.958Z,21.38
2023-02-06T00:32:36.537Z,23.88
2023-02-06T00:35:02.975Z,22.33
2023-02-06T00:37:30.543Z,22.17
2023-02-06T00:39:56.900Z,21.45
2023-02-06T00:42:23.320Z,22.77
2023-02-06T00:44:51.280Z,20.23
2023-02-06T00:47:17.650Z,21.58
2023-02-06T00:49:44.414Z,20.35
2023-02-06T00:52:10.821Z,18.52
2023-02-06T00:54:38.327Z,21.40
2023-02-06T00:57:04.840Z,19.77
2023-02-06T00:59:31.269Z,20.52
2023-02-06T01:01:57.664Z,19.58
2023-02-06T01:04:24.337Z,17.95
2023-02-06T01:06:55.684Z,19.80
2023-02-06T01:09:22.128Z,17.48
2023-02-06T01:11:48.533Z,19.70
2023-02-06T01:14:15.977Z,18.25
2023-02-06T01:16:42.497Z,17.63
2023-02-06T01:19:09.011Z,19.05
2023-02-06T01:21:36.278Z,18.20
2023-02-06T01:24:03.175Z,19.83
2023-02-06T01:26:29.599Z,17.98
2023-02-06T01:28:58.377Z,19.98
2023-02-06T01:31:28.941Z,18.33
2023-02-06T01:33:56.358Z,17.02
2023-02-06T01:36:22.834Z,17.75
2023-02-06T01:38:49.540Z,19.60
2023-02-06T01:41:17.214Z,19.73
2023-02-06T01:43:45.185Z,17.70
2023-02-06T01:46:11.624Z,18.70
2023-02-06T01:48:42.414Z,19.35
2023-02-06T01:51:10.518Z,18.58
2023-02-06T01:53:36.976Z,18.88
2023-02-06T01:56:05.008Z,18.58
2023-02-06T01:58:33.951Z,17.48
2023-02-06T02:01:01.649Z,18.15
2023-02-06T02:03:30.219Z,18.02
2023-02-06T02:05:59.374Z,17.05
2023-02-06T02:08:27.748Z,19.02
2023-02-06T02:10:54.180Z,18.67
2023-02-06T02:13:20.568Z,16.77
2023-02-06T02:15:55.042Z,18.00
2023-02-06T02:18:27.428Z,16.38
2023-02-06T02:23:23.223Z,16.20
2023-02-06T02:26:08.380Z,18.38
2023-02-06T02:28:50.103Z,19.15
2023-02-06T02:31:30.523Z,16.70
2023-02-06T02:34:06.813Z,16.30
2023-02-06T02:37:02.816Z,17.23
2023-02-06T02:39:53.351Z,16.10
2023-02-06T02:42:23.098Z,16.77
2023-02-06T02:45:00.111Z,15.73
2023-02-06T02:47:31.930Z,16.48
2023-02-06T02:50:00.860Z,15.15
2023-02-06T02:52:28.381Z,16.35
2023-02-06T02:54:54.993Z,16.38
2023-02-06T02:57:25.056Z,16.35
2023-02-06T02:59:51.861Z,16.17
2023-02-06T03:02:25.839Z,14.50
2023-02-06T03:05:04.376Z,16.85
2023-02-06T03:07:49.304Z,14.75
2023-02-06T03:10:15.665Z,15.23
2023-02-06T03:12:45.163Z,15.55
2023-02-06T03:15:23.887Z,15.10
2023-02-06T03:18:01.014Z,16.88
2023-02-06T03:20:28.063Z,14.15
2023-02-06T03:22:59.235Z,13.88
2023-02-06T03:25:30.542Z,14.30
2023-02-06T03:28:00.240Z,15.25
2023-02-06T03:30:28.374Z,15.70
2023-02-06T03:33:02.255Z,16.02
2023-02-06T03:35:33.857Z,16.48
2023-02-06T03:38:00.718Z,13.88
2023-02-06T03:40:28.879Z,13.32
2023-02-06T03:42:56.805Z,14.82
2023-02-06T03:45:28.480Z,14.93
2023-02-06T03:47:58.710Z,15.95
2023-02-06T03:50:26.058Z,15.45
2023-02-06T03:52:53.683Z,15.80
2023-02-06T03:55:21.839Z,14.13
2023-02-06T03:57:50.321Z,14.90
2023-02-06T04:00:16.828Z,16.40
2023-02-06T04:02:46.069Z,16.90
2023-02-06T04:05:14.363Z,14.23
2023-02-06T04:07:40.882Z,14.23
2023-02-06T04:10:08.519Z,14.52
2023-02-06T04:12:34.983Z,14.57
2023-02-06T04:15:01.408Z,15.68
2023-02-06T04:17:43.204Z,15.70
2023-02-06T04:20:13.427Z,14.35
2023-02-06T04:22:40.687Z,16.10
2023-02-06T04:25:07.300Z,14.40
2023-02-06T04:27:33.758Z,14.50
2023-02-06T04:30:01.461Z,14.45
2023-02-06T04:32:27.881Z,14.75
2023-02-06T04:34:54.566Z,14.48
2023-02-06T04:37:21.041Z,14.23
2023-02-06T04:39:47.794Z,15.70
2023-02-06T04:42:14.207Z,14.18
2023-02-06T04:44:40.655Z,13.90
2023-02-06T04:47:07.142Z,13.55
2023-02-06T04:49:33.679Z,13.93
2023-02-06T04:52:00.116Z,13.15
2023-02-06T04:54:26.543Z,14.45
2023-02-06T04:56:52.996Z,14.68
2023-02-06T04:59:19.419Z,13.88
2023-02-06T05:01:45.851Z,15.20
2023-02-06T05:04:12.298Z,14.63
2023-02-06T05:06:38.693Z,14.80
2023-02-06T05:09:06.011Z,15.32
2023-02-06T05:11:32.496Z,14.82
2023-02-06T05:13:58.923Z,15.75
2023-02-06T05:16:25.327Z,15.32
2023-02-06T05:18:55.991Z,15.27
2023-02-06T05:21:23.305Z,15.70
2023-02-06T05:23:49.935Z,14.80
2023-02-06T05:26:16.393Z,18.75
2023-02-06T05:28:42.873Z,17.17
2023-02-06T05:31:09.526Z,16.85
2023-02-06T05:33:38.107Z,17.15
2023-02-06T05:36:05.500Z,16.65
2023-02-06T05:38:31.988Z,17.63
2023-02-06T05:40:58.589Z,17.58
2023-02-06T05:43:25.110Z,17.23
2023-02-06T05:45:51.560Z,17.40
2023-02-06T05:48:17.991Z,19.23
2023-02-06T05:50:44.407Z,20.67
2023-02-06T05:53:10.880Z,19.83
2023-02-06T05:55:37.454Z,19.92
2023-02-06T05:58:06.114Z,17.58
2023-02-06T06:00:32.717Z,21.60
2023-02-06T06:02:59.146Z,18.40
2023-02-06T06:05:25.917Z,20.85
2023-02-06T06:07:52.590Z,20.20
2023-02-06T06:10:19.119Z,20.48
2023-02-06T06:12:45.524Z,19.38
2023-02-06T06:15:12.244Z,21.27
2023-02-06T06:17:39.869Z,19.35
2023-02-06T06:20:06.412Z,19.27
2023-02-06T06:22:32.852Z,22.38
2023-02-06T06:24:59.290Z,19.80
2023-02-06T06:27:25.689Z,20.25
2023-02-06T06:29:53.256Z,20.08
2023-02-06T06:32:21.706Z,19.88
2023-02-06T06:34:48.138Z,18.75
2023-02-06T06:37:15.720Z,19.33
2023-02-06T06:39:42.133Z,19.52
2023-02-06T06:42:08.694Z,19.60
2023-02-06T06:44:35.116Z,19.85
2023-02-06T06:47:01.649Z,21.55
2023-02-06T06:49:29.082Z,19.17
2023-02-06T06:51:55.546Z,18.73
2023-02-06T06:54:22.903Z,18.25
2023-02-06T06:56:49.290Z,18.83
2023-02-06T06:59:18.461Z,19.75
2023-02-06T07:01:44.904Z,19.40
2023-02-06T07:04:13.575Z,17.83
2023-02-06T07:06:39.975Z,19.33
2023-02-06T07:09:06.373Z,18.42
2023-02-06T07:11:32.767Z,18.33
2023-02-06T07:14:01.389Z,17.23
2023-02-06T07:16:27.979Z,18.02
2023-02-06T07:18:54.428Z,17.27
2023-02-06T07:21:20.944Z,15.25
2023-02-06T07:23:47.425Z,16.38
2023-02-06T07:26:13.950Z,16.48
2023-02-06T07:28:40.583Z,16.58
2023-02-06T07:31:07.699Z,15.20
2023-02-06T07:33:34.678Z,16.85
2023-02-06T07:36:03.792Z,13.93
2023-02-06T07:38:30.703Z,14.88
2023-02-06T07:41:00.593Z,14.05
2023-02-06T07:43:27.037Z,15.40
2023-02-06T07:45:53.491Z,13.63
2023-02-06T07:48:22.175Z,14.93
2023-02-06T07:50:53.769Z,16.55
2023-02-06T07:53:23.589Z,14.02
2023-02-06T07:55:50.107Z,15.57
2023-02-06T07:58:18.471Z,13.55
2023-02-06T08:00:48.709Z,15.65
2023-02-06T08:03:17.511Z,13.02
2023-02-06T08:05:48.180Z,14.43
2023-02-06T08:08:16.642Z,14.75
2023-02-06T08:10:43.256Z,15.02
2023-02-06T08:13:09.700Z,14.95
2023-02-06T08:15:36.338Z,14.13
2023-02-06T08:18:02.890Z,13.55
2023-02-06T08:20:29.354Z,13.90
2023-02-06T08:22:56.830Z,13.95
2023-02-06T08:25:24.430Z,11.57
2023-02-06T08:27:54.827Z,13.55
2023-02-06T08:30:21.883Z,14.35
2023-02-06T08:32:48.573Z,13.77
2023-02-06T08:35:15.070Z,13.57
2023-02-06T08:37:41.681Z,13.60
2023-02-06T08:40:08.502Z,14.68
2023-02-06T08:42:39.102Z,14.18
2023-02-06T08:45:05.772Z,12.20
2023-02-06T08:47:32.239Z,15.30
2023-02-06T08:49:59.724Z,13.52
2023-02-06T08:52:29.722Z,14.45
2023-02-06T08:54:56.152Z,15.13
2023-02-06T08:57:22.602Z,14.27
2023-02-06T08:59:49.689Z,14.98
2023-02-06T09:02:16.218Z,13.02
2023-02-06T09:04:43.507Z,13.90
2023-02-06T09:07:09.939Z,14.73
2023-02-06T09:09:36.544Z,14.27
2023-02-06T09:12:03.990Z,15.25
2023-02-06T09:14:33.306Z,14.45
2023-02-06T09:16:59.799Z,14.32
2023-02-06T09:19:26.286Z,15.85
2023-02-06T09:21:52.781Z,14.68
2023-02-06T09:24:23.613Z,14.95
2023-02-06T09:26:59.798Z,15.63
2023-02-06T09:29:31.218Z,14.40
2023-02-06T09:31:57.814Z,15.20
2023-02-06T09:34:25.880Z,14.70
2023-02-06T09:36:54.666Z,14.02
2023-02-06T09:39:21.506Z,14.50
2023-02-06T09:41:50.413Z,12.70
2023-02-06T09:44:19.569Z,13.88
2023-02-06T09:46:48.148Z,14.65
2023-02-06T09:49:18.344Z,14.40
2023-02-06T09:52:03.979Z,13.63
2023-02-06T09:54:30.301Z,13.82
2023-02-06T09:57:15.561Z,13.48
2023-02-06T09:59:45.051Z,12.05
2023-02-06T10:02:14.357Z,11.68
2023-02-06T10:04:49.998Z,12.75
2023-02-06T10:07:22.889Z,12.50
2023-02-06T10:09:59.440Z,11.45
2023-02-06T10:12:33.811Z,12.13
2023-02-06T10:15:06.789Z,11.85
2023-02-06T10:17:35.175Z,11.57
2023-02-06T10:20:04.674Z,12.23
2023-02-06T10:22:31.267Z,11.55
2023-02-06T10:25:16.773Z,12.10
2023-02-06T10:27:44.509Z,10.98
2023-02-06T10:30:19.382Z,9.68
2023-02-06T10:32:58.453Z,10.05
2023-02-06T10:35:32.299Z,10.80
2023-02-06T10:38:13.501Z,10.90
2023-02-06T10:41:01.365Z,9.82
2023-02-06T10:43:27.858Z,10.23
2023-02-06T10:46:06.640Z,9.38
2023-02-06T10:48:42.777Z,10.18
2023-02-06T10:51:19.614Z,8.82
2023-02-06T10:53:54.299Z,8.82
2023-02-06T10:56:25.019Z,8.57
2023-02-06T10:58:53.908Z,7.93
2023-02-06T11:01:26.410Z,7.85
2023-02-06T11:04:31.326Z,8.93
2023-02-06T11:07:00.558Z,8.40
2023-02-06T11:09:27.132Z,8.60
2023-02-06T11:11:56.139Z,8.02
2023-02-06T11:14:36.566Z,7.32
2023-02-06T11:17:03.037Z,8.57
2023-02-06T11:19:32.101Z,6.68
2023-02-06T11:22:04.637Z,7.35
2023-02-06T11:24:31.376Z,7.00
2023-02-06T11:26:59.745Z,7.20
2023-02-06T11:29:39.856Z,7.32
2023-02-06T11:32:07.956Z,7.85
2023-02-06T11:34:36.122Z,7.22
2023-02-06T11:37:07.069Z,8.02
2023-02-06T11:39:37.853Z,6.80
2023-02-06T11:42:04.275Z,7.15
2023-02-06T11:44:41.213Z,7.15
2023-02-06T11:47:32.309Z,6.63
2023-02-06T11:50:18.988Z,6.22
2023-02-06T11:52:47.823Z,7.18
2023-02-06T11:55:31.542Z,6.93
2023-02-06T11:58:21.143Z,6.47
2023-02-06T12:00:55.856Z,7.65
2023-02-06T12:03:33.438Z,5.65
2023-02-06T12:06:03.348Z,6.80
2023-02-06T12:08:37.929Z,6.10
2023-02-06T12:11:06.871Z,4.80
2023-02-06T12:13:39.000Z,5.88
2023-02-06T12:16:07.116Z,5.90
2023-02-06T12:18:41.186Z,5.47
2023-02-06T12:21:24.481Z,5.90
2023-02-06T12:23:59.603Z,5.03
2023-02-06T12:26:28.804Z,6.18
2023-02-06T12:28:59.021Z,5.68
2023-02-06T12:31:31.275Z,5.53
2023-02-06T12:34:25.653Z,4.82
2023-02-06T12:37:10.723Z,4.82
2023-02-06T12:39:39.592Z,6.90
2023-02-06T12:42:12.408Z,4.43
2023-02-06T12:44:43.254Z,4.80
2023-02-06T12:47:16.694Z,4.97
2023-02-06T12:49:51.795Z,4.93
2023-02-06T12:52:24.219Z,4.22
2023-02-06T12:57:26.619Z,5.10
2023-02-06T13:00:08.199Z,4.80
2023-02-06T13:02:52.038Z,5.30
2023-02-06T13:05:24.855Z,3.70
2023-02-06T13:07:52.545Z,4.53
2023-02-06T13:10:20.629Z,4.78
2023-02-06T13:12:53.908Z,4.60
2023-02-06T13:15:23.163Z,4.95
2023-02-06T13:17:52.647Z,4.00
2023-02-06T13:20:20.373Z,4.35
2023-02-06T13:22:50.781Z,4.00
2023-02-06T13:25:26.438Z,3.97
2023-02-06T13:27:53.457Z,4.22
2023-02-06T13:30:28.766Z,3.95
2023-02-06T13:32:59.114Z,4.55
2023-02-06T13:35:29.798Z,4.40
2023-02-06T13:38:25.479Z,4.38
2023-02-06T13:41:10.812Z,4.57
2023-02-06T13:43:37.459Z,4.32
2023-02-06T13:46:07.609Z,4.35
2023-02-06T13:48:33.980Z,4.75
2023-02-06T13:51:05.060Z,4.22
2023-02-06T13:53:43.744Z,4.05
2023-02-06T13:56:28.909Z,4.60
2023-02-06T13:59:00.580Z,4.65
2023-02-06T14:01:30.427Z,4.18
2023-02-06T14:04:01.873Z,4.38
2023-02-06T14:06:31.453Z,3.90
2023-02-06T14:09:16.627Z,4.93
2023-02-06T14:12:04.779Z,4.80
2023-02-06T14:14:37.082Z,4.20
2023-02-06T14:17:21.960Z,4.88
2023-02-06T14:20:14.044Z,4.25
2023-02-06T14:22:55.609Z,3.95
2023-02-06T14:25:22.078Z,5.18
2023-02-06T14:27:51.829Z,3.95
2023-02-06T14:30:36.971Z,3.97
2023-02-06T14:33:03.502Z,4.72
2023-02-06T14:35:39.398Z,5.82
2023-02-06T14:38:15.712Z,5.13
2023-02-06T14:40:43.281Z,4.63
2023-02-06T14:43:19.552Z,5.50
2023-02-06T14:46:05.592Z,5.10
2023-02-06T14:48:44.426Z,4.35
2023-02-06T14:51:25.335Z,4.40
2023-02-06T14:53:57.803Z,5.47
2023-02-06T14:58:51.414Z,5.82
2023-02-06T15:01:17.850Z,5.10
2023-02-06T15:03:45.516Z,5.55
2023-02-06T15:06:14.618Z,4.72
2023-02-06T15:08:48.584Z,5.65
2023-02-06T15:11:18.892Z,5.35
2023-02-06T15:13:49.210Z,5.15
2023-02-06T15:16:17.104Z,5.35
2023-02-06T15:18:43.914Z,4.47
2023-02-06T15:21:14.921Z,5.88
2023-02-06T15:23:46.923Z,4.45
2023-02-06T15:26:13.315Z,4.72
2023-02-06T15:28:43.562Z,5.20
2023-02-06T15:31:28.517Z,5.28
2023-02-06T15:33:56.806Z,6.63
2023-02-06T15:36:24.918Z,6.03
2023-02-06T15:38:51.871Z,5.25
2023-02-06T15:41:18.567Z,5.55
2023-02-06T15:43:46.880Z,5.95
2023-02-06T15:46:13.757Z,5.03
2023-02-06T15:48:43.717Z,6.03
2023-02-06T15:51:24.233Z,5.80
2023-02-06T15:53:51.922Z,5.90
2023-02-06T15:56:18.292Z,5.72
2023-02-06T15:58:44.861Z,6.20
2023-02-06T16:01:21.432Z,5.20
2023-02-06T16:03:57.882Z,6.30
2023-02-06T16:06:24.540Z,5.68
2023-02-06T16:09:03.349Z,5.80
2023-02-06T16:11:51.184Z,5.43
2023-02-06T16:14:28.864Z,5.25
2023-02-06T16:17:02.160Z,6.03
2023-02-06T16:19:36.621Z,5.18
2023-02-06T16:22:18.264Z,5.18
2023-02-06T16:24:47.167Z,6.20
2023-02-06T16:27:19.771Z,6.25
2023-02-06T16:29:47.983Z,5.35
2023-02-06T16:32:20.728Z,5.35
2023-02-06T16:34:50.113Z,5.85
2023-02-06T16:37:26.845Z,7.15
2023-02-06T16:39:53.423Z,6.22
2023-02-06T16:42:21.620Z,6.80
2023-02-06T16:44:50.044Z,6.18
2023-02-06T16:47:18.503Z,8.48
2023-02-06T16:49:48.156Z,6.93
2023-02-06T16:52:19.069Z,6.10
2023-02-06T16:54:47.590Z,7.30
2023-02-06T16:57:19.033Z,6.38
2023-02-06T16:59:45.533Z,6.45
2023-02-06T17:02:12.708Z,7.13
2023-02-06T17:04:39.703Z,6.22
2023-02-06T17:07:10.788Z,6.65
2023-02-06T17:09:37.308Z,7.45
2023-02-06T17:12:03.865Z,6.95
2023-02-06T17:14:30.293Z,7.18
2023-02-06T17:16:58.480Z,7.40
2023-02-06T17:19:28.029Z,6.47
2023-02-06T17:21:54.640Z,7.07
2023-02-06T17:24:21.471Z,7.43
2023-02-06T17:26:47.920Z,6.25
2023-02-06T17:29:14.350Z,6.75
2023-02-06T17:31:43.091Z,6.70
2023-02-06T17:34:09.650Z,7.07
2023-02-06T17:36:39.657Z,6.28
2023-02-06T17:39:06.149Z,7.78
2023-02-06T17:41:32.593Z,6.78
2023-02-06T17:43:59.093Z,7.55
2023-02-06T17:46:25.650Z,6.57
2023-02-06T17:48:52.120Z,7.03
2023-02-06T17:51:18.588Z,8.27
2023-02-06T17:53:45.075Z,8.50
2023-02-06T17:56:12.961Z,8.50
2023-02-06T17:58:40.218Z,7.45
2023-02-06T18:01:26.898Z,7.57
2023-02-06T18:03:53.686Z,6.40
2023-02-06T18:06:20.252Z,7.22
2023-02-06T18:08:47.371Z,7.95
2023-02-06T18:11:18.267Z,7.20
2023-02-06T18:13:45.622Z,8.23
2023-02-06T18:16:19.649Z,7.88
2023-02-06T18:18:46.311Z,8.88
2023-02-06T18:21:13.136Z,7.80
2023-02-06T18:23:42.403Z,6.90
2023-02-06T18:26:11.962Z,8.00
2023-02-06T18:28:39.495Z,8.32
2023-02-06T18:31:08.507Z,7.85
2023-02-06T18:33:36.123Z,8.60
2023-02-06T18:36:06.274Z,8.70
2023-02-06T18:38:32.944Z,8.68
2023-02-06T18:41:05.986Z,9.23
2023-02-06T18:43:33.072Z,9.50
2023-02-06T18:46:09.128Z,8.98
2023-02-06T18:48:36.303Z,10.48
2023-02-06T18:51:06.580Z,10.05
2023-02-06T18:53:33.050Z,11.07
2023-02-06T18:56:01.501Z,9.25
2023-02-06T18:58:29.687Z,9.18
2023-02-06T19:00:58.527Z,9.10
2023-02-06T19:03:25.011Z,9.75
2023-02-06T19:05:51.463Z,9.85
2023-02-06T19:08:17.972Z,10.38
2023-02-06T19:10:44.468Z,9.85
2023-02-06T19:13:10.909Z,9.30
2023-02-06T19:15:38.427Z,9.80
2023-02-06T19:18:05.611Z,9.57
2023-02-06T19:20:32.021Z,10.52
2023-02-06T19:22:58.458Z,10.32
2023-02-06T19:25:30.486Z,10.35
2023-02-06T19:27:57.053Z,9.75
2023-02-06T19:30:23.634Z,11.05
2023-02-06T19:32:51.524Z,9.82
2023-02-06T19:35:18.952Z,10.25
2023-02-06T19:37:45.442Z,9.35
2023-02-06T19:40:11.957Z,12.65
2023-02-06T19:42:47.265Z,10.63
2023-02-06T19:45:13.651Z,11.40
2023-02-06T19:47:40.132Z,11.23
2023-02-06T19:50:06.853Z,12.20
2023-02-06T19:52:43.951Z,13.30
2023-02-06T19:55:10.530Z,11.15
2023-02-06T19:57:39.518Z,13.02
2023-02-06T20:00:06.420Z,12.20
2023-02-06T20:02:32.832Z,12.95
2023-02-06T20:05:02.097Z,13.38
2023-02-06T20:07:29.218Z,13.10
2023-02-06T20:09:55.984Z,14.13
2023-02-06T20:12:22.468Z,16.92
2023-02-06T20:14:51.664Z,17.65
2023-02-06T20:17:18.510Z,18.80
2023-02-06T20:19:46.117Z,19.70
2023-02-06T20:22:12.587Z,21.67
2023-02-06T20:24:39.059Z,21.67
2023-02-06T20:27:08.918Z,22.38
2023-02-06T20:29:36.780Z,25.05
2023-02-06T20:32:03.945Z,24.73
2023-02-06T20:34:31.106Z,27.27
2023-02-06T20:36:57.893Z,25.70
2023-02-06T20:39:24.579Z,26.42
2023-02-06T20:41:52.853Z,25.92
2023-02-06T20:44:19.700Z,26.70
2023-02-06T20:46:46.494Z,27.15
2023-02-06T20:49:14.819Z,26.73
2023-02-06T20:51:41.488Z,30.02
2023-02-06T20:54:08.167Z,26.50
2023-02-06T20:56:34.965Z,28.20
2023-02-06T20:59:02.908Z,29.40
2023-02-06T21:01:30.958Z,28.30
2023-02-06T21:03:59.258Z,30.35
2023-02-06T21:06:26.818Z,30.20
2023-02-06T21:08:57.365Z,31.02
2023-02-06T21:11:24.145Z,30.20
2023-02-06T21:13:50.617Z,30.40
2023-02-06T21:16:17.002Z,28.30
2023-02-06T21:18:43.568Z,28.98
2023-02-06T21:21:11.646Z,26.83
2023-02-06T21:23:38.800Z,30.08
2023-02-06T21:26:06.602Z,27.63
2023-02-06T21:28:33.871Z,26.08
2023-02-06T21:31:01.539Z,28.95
2023-02-06T21:33:31.603Z,29.00
2023-02-06T21:35:58.227Z,25.83
2023-02-06T21:38:24.960Z,26.27
2023-02-06T21:40:51.390Z,26.23
2023-02-06T21:43:17.978Z,25.65
2023-02-06T21:45:44.524Z,26.00
2023-02-06T21:48:13.295Z,25.05
2023-02-06T21:50:40.688Z,22.48
2023-02-06T21:53:08.352Z,24.00
2023-02-06T21:55:38.847Z,22.83
2023-02-06T21:58:05.225Z,23.67
2023-02-06T22:00:34.324Z,21.88
2023-02-06T22:03:00.940Z,21.17
2023-02-06T22:05:27.716Z,24.67
2023-02-06T22:07:54.201Z,21.17
2023-02-06T22:10:22.986Z,21.75
2023-02-06T22:12:49.474Z,22.90
2023-02-06T22:15:15.888Z,21.02
2023-02-06T22:17:42.289Z,20.98
2023-02-06T22:20:11.461Z,21.63
2023-02-06T22:22:49.242Z,21.58
2023-02-06T22:25:15.629Z,23.08
2023-02-06T22:27:42.133Z,21.02
2023-02-06T22:30:08.896Z,22.77
2023-02-06T22:32:39.282Z,21.92
2023-02-06T22:35:06.685Z,21.88
2023-02-06T22:37:33.862Z,21.55
2023-02-06T22:40:06.103Z,22.17
2023-02-06T22:42:37.983Z,21.48
2023-02-06T22:45:04.719Z,24.55
2023-02-06T22:47:32.387Z,23.55
2023-02-06T22:49:58.774Z,23.23
2023-02-06T22:52:45.724Z,22.48
2023-02-06T22:55:12.422Z,22.50
2023-02-06T22:57:38.917Z,23.52
2023-02-06T23:02:50.695Z,24.33
2023-02-06T23:05:17.168Z,25.13
2023-02-06T23:34:39.835Z,32.42
2023-02-06T23:37:06.811Z,31.23
2023-02-06T23:39:33.250Z,33.50
2023-02-06T23:41:59.696Z,31.85
2023-02-06T23:44:26.119Z,31.08
2023-02-06T23:46:52.554Z,33.65
2023-02-06T23:49:19.004Z,34.30
2023-02-06T23:51:47.623Z,34.42
2023-02-06T23:54:14.181Z,35.80
2023-02-06T23:56:40.955Z,33.10
2023-02-06T23:59:08.835Z,34.92
